createdAt,value
2023-09-12T00:00:00.942Z,92.32
2023-09-12T00:03:04.310Z,92.80
2023-09-12T00:06:07.575Z,92.04
2023-09-12T00:09:10.206Z,92.33
2023-09-12T00:12:16.423Z,92.08
2023-09-12T00:15:20.966Z,91.42
2023-09-12T00:18:23.864Z,92.16
2023-09-12T00:21:26.349Z,92.00
2023-09-12T00:24:29.155Z,91.70
2023-09-12T00:27:31.778Z,91.55
2023-09-12T00:30:35.476Z,92.06
2023-09-12T00:33:38.293Z,91.83
2023-09-12T00:36:41.301Z,91.53
2023-09-12T00:39:44.080Z,91.74
2023-09-12T00:42:46.794Z,91.59
2023-09-12T00:45:49.427Z,91.59
2023-09-12T00:48:54.177Z,91.09
2023-09-12T00:51:57.926Z,91.26
2023-09-12T00:55:02.181Z,93.38
2023-09-12T00:58:05.447Z,92.33
2023-09-12T01:01:08.707Z,92.87
2023-09-12T01:04:24.190Z,92.68
2023-09-12T01:07:36.783Z,92.37
2023-09-12T01:10:39.415Z,92.35
2023-09-12T01:13:42.182Z,92.30
2023-09-12T01:16:44.961Z,92.34
2023-09-12T01:19:49.471Z,92.75
2023-09-12T01:22:59.062Z,92.71
2023-09-12T01:26:30.875Z,92.42
2023-09-12T01:29:34.953Z,93.27
2023-09-12T01:32:39.032Z,94.05
2023-09-12T01:35:41.509Z,93.93
2023-09-12T01:38:44.885Z,93.81
2023-09-12T01:41:49.673Z,93.90
2023-09-12T01:44:56.689Z,93.46
2023-09-12T01:47:59.725Z,93.52
2023-09-12T01:51:05.248Z,93.30
2023-09-12T01:54:09.349Z,93.10
2023-09-12T01:57:14.057Z,92.78
2023-09-12T02:00:19.270Z,93.87
2023-09-12T02:03:22.357Z,94.10
2023-09-12T02:06:25.365Z,94.73
2023-09-12T02:09:28.358Z,95.34
2023-09-12T02:12:30.918Z,94.86
2023-09-12T02:15:33.854Z,95.77
2023-09-12T02:18:37.597Z,94.60
2023-09-12T02:21:40.448Z,94.76
2023-09-12T02:24:43.287Z,95.95
2023-09-12T02:27:46.233Z,95.64
2023-09-12T02:30:48.800Z,95.58
2023-09-12T02:33:51.622Z,95.67
2023-09-12T02:36:54.565Z,96.03
2023-09-12T02:39:57.511Z,96.39
2023-09-12T02:43:00.287Z,96.06
2023-09-12T02:46:03.757Z,95.95
2023-09-12T02:49:06.821Z,95.66
2023-09-12T02:52:09.901Z,95.89
2023-09-12T02:55:12.459Z,95.53
2023-09-12T02:58:15.388Z,95.19
2023-09-12T03:01:19.118Z,95.74
2023-09-12T03:04:22.195Z,96.29
2023-09-12T03:07:25.131Z,97.70
2023-09-12T03:10:28.162Z,99.06
2023-09-12T03:13:30.682Z,99.19
2023-09-12T03:16:33.863Z,97.08
2023-09-12T03:19:36.573Z,97.59
2023-09-12T03:22:39.512Z,97.29
2023-09-12T03:25:42.401Z,98.85
2023-09-12T03:28:45.587Z,98.90
2023-09-12T03:31:48.273Z,97.57
2023-09-12T03:34:51.298Z,98.65
2023-09-12T03:37:54.162Z,99.64
2023-09-12T03:40:57.152Z,98.01
2023-09-12T03:43:59.715Z,100.00
2023-09-12T03:47:02.440Z,98.55
2023-09-12T03:50:05.970Z,98.66
2023-09-12T03:53:09.822Z,99.70
2023-09-12T03:56:13.780Z,99.02
2023-09-12T03:59:17.061Z,100.00
2023-09-12T04:02:20.148Z,100.00
2023-09-12T04:05:23.451Z,99.25
2023-09-12T04:08:26.553Z,99.08
2023-09-12T04:11:43.781Z,99.19
2023-09-12T04:14:51.621Z,99.07
2023-09-12T04:17:54.693Z,99.24
2023-09-12T04:20:58.972Z,98.40
2023-09-12T04:24:02.033Z,99.73
2023-09-12T04:27:05.070Z,99.26
2023-09-12T04:30:10.133Z,99.20
2023-09-12T04:33:12.774Z,98.85
2023-09-12T04:36:15.705Z,98.58
2023-09-12T04:39:21.608Z,98.11
2023-09-12T04:42:24.770Z,97.55
2023-09-12T04:45:27.504Z,98.15
2023-09-12T04:48:32.541Z,97.30
2023-09-12T04:51:35.838Z,96.68
2023-09-12T04:54:39.103Z,96.11
2023-09-12T04:57:42.797Z,95.35
2023-09-12T05:00:46.643Z,94.49
2023-09-12T05:03:49.591Z,93.69
2023-09-12T05:06:52.652Z,93.02
2023-09-12T05:09:57.773Z,92.08
2023-09-12T05:13:00.617Z,90.99
2023-09-12T05:16:03.556Z,90.87
2023-09-12T05:19:06.507Z,90.07
2023-09-12T05:22:09.731Z,89.30
2023-09-12T05:25:12.595Z,88.48
2023-09-12T05:28:17.229Z,87.83
2023-09-12T05:31:20.926Z,87.06
2023-09-12T05:34:23.887Z,86.12
2023-09-12T05:37:26.891Z,85.44
2023-09-12T05:40:29.906Z,84.76
2023-09-12T05:43:32.891Z,83.79
2023-09-12T05:46:35.655Z,83.21
2023-09-12T05:49:38.555Z,82.55
2023-09-12T05:52:42.737Z,81.49
2023-09-12T05:55:46.160Z,80.25
2023-09-12T05:58:51.180Z,80.17
2023-09-12T06:01:54.779Z,78.34
2023-09-12T06:04:57.788Z,73.70
2023-09-12T06:08:00.999Z,68.71
2023-09-12T06:11:04.098Z,68.54
2023-09-12T06:14:07.228Z,64.45
2023-09-12T06:17:10.981Z,61.59
2023-09-12T06:20:13.498Z,59.24
2023-09-12T06:23:16.205Z,59.88
2023-09-12T06:26:18.760Z,57.39
2023-09-12T06:29:21.725Z,52.03
2023-09-12T06:32:24.219Z,54.20
2023-09-12T06:35:27.619Z,52.27
2023-09-12T06:38:30.341Z,49.76
2023-09-12T06:41:33.380Z,50.53
2023-09-12T06:44:36.722Z,48.18
2023-09-12T06:47:39.698Z,46.36
2023-09-12T06:50:43.793Z,45.56
2023-09-12T06:53:49.775Z,47.88
2023-09-12T06:56:52.208Z,48.25
2023-09-12T06:59:55.234Z,45.67
2023-09-12T07:02:58.542Z,47.17
2023-09-12T07:06:01.933Z,45.95
2023-09-12T07:09:05.733Z,46.87
2023-09-12T07:12:09.113Z,45.89
2023-09-12T07:15:11.882Z,48.09
2023-09-12T07:18:16.350Z,45.54
2023-09-12T07:21:19.940Z,42.65
2023-09-12T07:24:26.729Z,45.90
2023-09-12T07:27:29.627Z,44.30
2023-09-12T07:30:32.713Z,44.50
2023-09-12T07:33:35.736Z,42.61
2023-09-12T07:36:39.690Z,42.02
2023-09-12T07:39:42.467Z,42.72
2023-09-12T07:42:45.317Z,40.54
2023-09-12T07:45:48.199Z,41.15
2023-09-12T07:48:51.022Z,40.24
2023-09-12T07:51:55.368Z,40.66
2023-09-12T07:55:02.143Z,38.26
2023-09-12T07:58:04.772Z,40.07
2023-09-12T08:01:11.211Z,40.45
2023-09-12T08:04:15.833Z,39.82
2023-09-12T08:07:18.888Z,41.46
2023-09-12T08:10:21.926Z,39.68
2023-09-12T08:13:28.695Z,39.52
2023-09-12T08:16:33.181Z,41.17
2023-09-12T08:19:35.965Z,40.02
2023-09-12T08:22:40.044Z,39.21
2023-09-12T08:25:42.438Z,38.88
2023-09-12T08:28:45.594Z,40.08
2023-09-12T08:31:48.396Z,39.72
2023-09-12T08:34:51.178Z,39.66
2023-09-12T08:37:53.870Z,41.31
2023-09-12T08:40:58.240Z,40.92
2023-09-12T08:44:02.017Z,39.90
2023-09-12T08:47:08.401Z,39.52
2023-09-12T08:50:16.827Z,39.13
2023-09-12T08:53:23.649Z,41.81
2023-09-12T08:56:26.825Z,41.98
2023-09-12T08:59:32.262Z,39.38
2023-09-12T09:02:36.162Z,38.99
2023-09-12T09:05:40.969Z,39.19
2023-09-12T09:08:45.895Z,39.68
2023-09-12T09:11:49.425Z,38.88
2023-09-12T09:14:54.404Z,37.70
2023-09-12T09:18:01.952Z,38.72
2023-09-12T09:21:21.748Z,36.80
2023-09-12T09:24:24.623Z,34.15
2023-09-12T09:27:35.188Z,35.44
2023-09-12T09:30:43.385Z,36.34
2023-09-12T09:33:52.407Z,35.88
2023-09-12T09:36:57.916Z,33.62
2023-09-12T09:40:00.725Z,35.16
2023-09-12T09:43:05.190Z,35.51
2023-09-12T09:46:07.975Z,34.71
2023-09-12T09:49:12.459Z,34.19
2023-09-12T09:52:15.149Z,34.49
2023-09-12T09:55:20.698Z,34.92
2023-09-12T09:58:24.892Z,33.77
2023-09-12T10:01:29.709Z,33.98
2023-09-12T10:04:45.546Z,34.31
2023-09-12T10:07:51.559Z,33.37
2023-09-12T10:10:54.628Z,33.66
2023-09-12T10:14:00.423Z,34.53
2023-09-12T10:17:07.611Z,34.10
2023-09-12T10:20:17.369Z,33.53
2023-09-12T10:23:43.655Z,34.62
2023-09-12T10:26:47.663Z,31.56
2023-09-12T10:29:53.554Z,34.21
2023-09-12T10:32:57.189Z,32.44
2023-09-12T10:36:00.868Z,33.35
2023-09-12T10:39:06.209Z,34.07
2023-09-12T10:42:09.840Z,32.93
2023-09-12T10:45:12.803Z,32.83
2023-09-12T10:48:15.983Z,30.50
2023-09-12T10:51:19.996Z,31.60
2023-09-12T10:54:36.322Z,31.66
2023-09-12T10:58:05.988Z,30.84
2023-09-12T11:01:42.625Z,32.87
2023-09-12T11:04:45.894Z,31.90
2023-09-12T11:07:48.911Z,30.25
2023-09-12T11:11:21.341Z,30.11
2023-09-12T11:14:25.459Z,30.96
2023-09-12T11:17:28.115Z,31.29
2023-09-12T11:20:59.130Z,30.67
2023-09-12T11:24:01.949Z,32.33
2023-09-12T11:27:09.121Z,30.82
2023-09-12T11:30:12.355Z,30.73
2023-09-12T11:33:15.535Z,30.89
2023-09-12T11:36:20.151Z,30.77
2023-09-12T11:39:27.358Z,30.71
2023-09-12T11:42:31.274Z,30.52
2023-09-12T11:45:34.782Z,31.08
2023-09-12T11:48:37.852Z,30.66
2023-09-12T11:51:54.949Z,31.00
2023-09-12T11:54:57.643Z,29.90
2023-09-12T11:58:00.812Z,30.12
2023-09-12T12:01:04.350Z,30.46
2023-09-12T12:04:08.490Z,30.46
2023-09-12T12:07:12.684Z,31.90
2023-09-12T12:10:17.032Z,30.95
2023-09-12T12:13:20.986Z,30.20
2023-09-12T12:16:27.484Z,30.56
2023-09-12T12:19:30.216Z,30.75
2023-09-12T12:22:33.023Z,30.08
2023-09-12T12:25:36.233Z,30.71
2023-09-12T12:28:39.354Z,30.86
2023-09-12T12:31:42.320Z,30.12
2023-09-12T12:35:36.050Z,33.00
2023-09-12T12:38:13.307Z,32.07
2023-09-12T12:41:24.630Z,31.30
2023-09-12T12:44:36.364Z,31.78
2023-09-12T12:47:39.270Z,31.44
2023-09-12T12:50:43.964Z,31.59
2023-09-12T12:53:53.467Z,32.63
2023-09-12T12:56:56.794Z,31.47
2023-09-12T13:00:00.768Z,33.70
2023-09-12T13:03:04.556Z,31.94
2023-09-12T13:06:09.034Z,31.93
2023-09-12T13:09:12.828Z,31.95
2023-09-12T13:12:16.091Z,32.19
2023-09-12T13:15:19.853Z,32.76
2023-09-12T13:18:22.835Z,32.04
2023-09-12T13:21:25.559Z,32.11
2023-09-12T13:24:28.325Z,32.05
2023-09-12T13:27:30.826Z,32.17
2023-09-12T13:30:33.674Z,32.70
2023-09-12T13:33:37.173Z,32.25
2023-09-12T13:36:40.115Z,32.36
2023-09-12T13:39:42.876Z,33.57
2023-09-12T13:42:46.951Z,33.33
2023-09-12T13:45:49.915Z,33.64
2023-09-12T13:48:53.048Z,33.85
2023-09-12T13:51:56.089Z,33.16
2023-09-12T13:54:59.642Z,32.83
2023-09-12T13:58:06.280Z,33.00
2023-09-12T14:01:10.023Z,32.93
2023-09-12T14:04:15.228Z,34.24
2023-09-12T14:07:18.380Z,32.20
2023-09-12T14:10:29.392Z,33.23
2023-09-12T14:13:37.178Z,33.31
2023-09-12T14:16:40.264Z,33.52
2023-09-12T14:19:44.880Z,33.74
2023-09-12T14:22:47.930Z,34.06
2023-09-12T14:25:50.911Z,33.47
2023-09-12T14:28:54.897Z,32.80
2023-09-12T14:31:59.146Z,34.38
2023-09-12T14:35:01.971Z,34.12
2023-09-12T14:38:05.525Z,34.03
2023-09-12T14:41:13.129Z,32.80
2023-09-12T14:44:15.772Z,34.21
2023-09-12T14:47:18.485Z,33.66
2023-09-12T14:50:27.280Z,34.03
2023-09-12T14:53:36.907Z,35.07
2023-09-12T14:56:39.961Z,34.87
2023-09-12T14:59:42.688Z,34.98
2023-09-12T15:02:45.355Z,36.71
2023-09-12T15:05:48.156Z,35.58
2023-09-12T15:08:51.539Z,35.80
2023-09-12T15:11:54.284Z,35.42
2023-09-12T15:14:57.004Z,34.86
2023-09-12T15:18:01.005Z,35.90
2023-09-12T15:21:04.791Z,36.40
2023-09-12T15:24:07.795Z,36.32
2023-09-12T15:27:10.327Z,36.74
2023-09-12T15:30:13.513Z,36.78
2023-09-12T15:33:16.547Z,37.33
2023-09-12T15:36:19.494Z,37.73
2023-09-12T15:39:21.943Z,38.28
2023-09-12T15:42:36.795Z,38.68
2023-09-12T15:45:50.524Z,39.63
2023-09-12T15:48:56.252Z,40.43
2023-09-12T15:51:59.503Z,39.96
2023-09-12T15:55:02.550Z,39.99
2023-09-12T15:58:06.443Z,39.95
2023-09-12T16:01:09.350Z,40.33
2023-09-12T16:04:12.158Z,40.64
2023-09-12T16:07:14.663Z,41.00
2023-09-12T16:10:17.508Z,41.37
2023-09-12T16:13:20.158Z,41.35
2023-09-12T16:16:22.924Z,41.19
2023-09-12T16:19:25.717Z,41.13
2023-09-12T16:22:29.492Z,41.52
2023-09-12T16:25:31.957Z,42.16
2023-09-12T16:28:34.865Z,43.18
2023-09-12T16:31:38.035Z,43.57
2023-09-12T16:34:41.199Z,44.45
2023-09-12T16:37:43.713Z,45.19
2023-09-12T16:40:47.358Z,46.55
2023-09-12T16:43:49.860Z,49.36
2023-09-12T16:46:52.854Z,52.41
2023-09-12T16:49:58.140Z,55.20
2023-09-12T16:53:01.060Z,57.94
2023-09-12T16:56:03.650Z,59.23
2023-09-12T16:59:06.319Z,59.93
2023-09-12T17:02:09.071Z,60.67
2023-09-12T17:05:12.193Z,61.72
2023-09-12T17:08:14.845Z,61.47
2023-09-12T17:11:18.042Z,60.92
2023-09-12T17:14:21.370Z,60.78
2023-09-12T17:17:25.407Z,61.15
2023-09-12T17:20:28.301Z,61.60
2023-09-12T17:23:31.009Z,61.55
2023-09-12T17:26:33.458Z,62.07
2023-09-12T17:29:36.230Z,63.01
2023-09-12T17:32:38.749Z,63.56
2023-09-12T17:35:42.369Z,64.02
2023-09-12T17:38:45.062Z,64.47
2023-09-12T17:41:48.568Z,64.85
2023-09-12T17:44:51.116Z,64.92
2023-09-12T17:47:54.818Z,65.14
2023-09-12T17:50:57.919Z,65.01
2023-09-12T17:54:00.745Z,64.99
2023-09-12T17:57:03.611Z,65.32
2023-09-12T18:00:09.115Z,65.97
2023-09-12T18:03:14.384Z,66.41
2023-09-12T18:06:19.965Z,66.80
2023-09-12T18:09:22.593Z,67.08
2023-09-12T18:12:25.357Z,67.36
2023-09-12T18:15:28.001Z,67.08
2023-09-12T18:18:31.086Z,66.91
2023-09-12T18:21:33.881Z,66.85
2023-09-12T18:24:36.705Z,67.01
2023-09-12T18:27:39.317Z,67.32
2023-09-12T18:30:42.367Z,67.54
2023-09-12T18:33:46.686Z,67.80
2023-09-12T18:36:50.227Z,67.70
2023-09-12T18:39:53.100Z,68.22
2023-09-12T18:42:56.610Z,68.80
2023-09-12T18:45:59.631Z,69.35
2023-09-12T18:49:04.308Z,69.55
2023-09-12T18:52:07.251Z,69.61
2023-09-12T18:55:10.550Z,69.65
2023-09-12T18:58:14.183Z,70.00
2023-09-12T19:01:17.575Z,69.75
2023-09-12T19:04:29.879Z,69.75
2023-09-12T19:07:32.805Z,69.90
2023-09-12T19:10:35.759Z,69.73
2023-09-12T19:13:38.619Z,70.12
2023-09-12T19:16:43.293Z,70.71
2023-09-12T19:19:46.363Z,71.07
2023-09-12T19:22:49.482Z,71.02
2023-09-12T19:25:52.269Z,71.34
2023-09-12T19:28:54.920Z,71.30
2023-09-12T19:31:57.676Z,71.71
2023-09-12T19:35:01.171Z,71.83
2023-09-12T19:38:05.830Z,72.64
2023-09-12T19:41:08.760Z,73.61
2023-09-12T19:44:12.109Z,73.64
2023-09-12T19:47:15.737Z,73.52
2023-09-12T19:50:18.751Z,74.12
2023-09-12T19:53:21.485Z,74.70
2023-09-12T19:56:24.491Z,76.16
2023-09-12T19:59:27.995Z,75.44
2023-09-12T20:02:31.006Z,75.79
2023-09-12T20:05:33.755Z,76.30
2023-09-12T20:08:36.453Z,76.59
2023-09-12T20:11:39.552Z,76.93
2023-09-12T20:14:42.021Z,76.93
2023-09-12T20:17:47.857Z,77.52
2023-09-12T20:20:50.699Z,77.41
2023-09-12T20:23:54.296Z,77.80
2023-09-12T20:26:57.429Z,77.71
2023-09-12T20:30:01.144Z,77.53
2023-09-12T20:33:04.939Z,77.23
2023-09-12T20:36:08.213Z,77.14
2023-09-12T20:39:26.339Z,77.64
2023-09-12T20:42:29.250Z,77.83
2023-09-12T20:45:31.998Z,78.63
2023-09-12T20:48:36.589Z,78.90
2023-09-12T20:51:41.584Z,77.82
2023-09-12T20:54:44.919Z,78.01
2023-09-12T20:57:47.782Z,78.25
2023-09-12T21:00:50.609Z,78.12
2023-09-12T21:03:54.830Z,78.29
2023-09-12T21:06:58.039Z,78.14
2023-09-12T21:10:00.561Z,78.86
2023-09-12T21:13:03.939Z,78.94
2023-09-12T21:16:06.929Z,80.14
2023-09-12T21:19:10.008Z,81.16
2023-09-12T21:22:12.538Z,80.43
2023-09-12T21:25:15.780Z,80.26
2023-09-12T21:28:19.140Z,80.99
2023-09-12T21:31:22.011Z,81.28
2023-09-12T21:34:24.502Z,82.19
2023-09-12T21:37:27.209Z,82.34
2023-09-12T21:40:29.740Z,83.42
2023-09-12T21:43:32.730Z,82.59
2023-09-12T21:46:36.432Z,83.51
2023-09-12T21:49:39.541Z,82.39
2023-09-12T21:52:43.580Z,82.10
2023-09-12T21:55:47.117Z,81.76
2023-09-12T21:58:49.647Z,81.63
2023-09-12T22:01:52.703Z,82.30
2023-09-12T22:04:55.640Z,82.16
2023-09-12T22:07:58.340Z,82.37
2023-09-12T22:11:01.278Z,81.80
2023-09-12T22:14:04.216Z,81.84
2023-09-12T22:17:07.368Z,82.19
2023-09-12T22:20:13.660Z,82.10
2023-09-12T22:23:16.943Z,82.76
2023-09-12T22:26:19.355Z,82.86
2023-09-12T22:29:22.361Z,82.76
2023-09-12T22:32:25.038Z,82.91
2023-09-12T22:35:27.783Z,84.04
2023-09-12T22:38:31.238Z,84.12
2023-09-12T22:41:35.823Z,83.72
2023-09-12T22:44:38.361Z,84.83
2023-09-12T22:47:41.813Z,84.04
2023-09-12T22:50:45.898Z,85.13
2023-09-12T22:53:49.075Z,84.62
2023-09-12T22:56:51.570Z,84.71
2023-09-12T22:59:54.511Z,84.63
2023-09-12T23:02:57.321Z,85.38
2023-09-12T23:06:03.764Z,84.99
2023-09-12T23:09:06.320Z,85.47
2023-09-12T23:12:09.448Z,85.77
2023-09-12T23:15:12.107Z,85.83
2023-09-12T23:18:15.356Z,87.29
2023-09-12T23:21:18.039Z,85.44
2023-09-12T23:24:21.034Z,85.21
2023-09-12T23:27:24.876Z,87.02
2023-09-12T23:30:27.956Z,86.30
2023-09-12T23:33:30.646Z,87.25
2023-09-12T23:36:33.973Z,87.27
2023-09-12T23:39:36.545Z,86.75
2023-09-12T23:42:40.607Z,86.11
2023-09-12T23:45:43.198Z,87.07
2023-09-12T23:48:46.228Z,86.25
2023-09-12T23:51:48.898Z,86.65
2023-09-12T23:54:51.820Z,86.26
2023-09-12T23:57:54.373Z,86.79
